createdAt,value
2022-07-27T00:01:06.045Z,100205.75
2022-07-27T00:05:08.686Z,100221.28
2022-07-27T00:09:12.044Z,100229.38
2022-07-27T00:13:14.872Z,100222.09
2022-07-27T00:17:23.888Z,100238.38
2022-07-27T00:21:26.936Z,100246.41
2022-07-27T00:25:29.545Z,100249.50
2022-07-27T00:29:31.576Z,100264.00
2022-07-27T00:33:33.840Z,100248.56
2022-07-27T00:37:36.053Z,100245.81
2022-07-27T00:41:38.266Z,100260.63
2022-07-27T00:45:40.345Z,100253.22
2022-07-27T00:49:42.652Z,100247.50
2022-07-27T00:53:45.687Z,100258.97
2022-07-27T00:57:58.309Z,100257.81
2022-07-27T01:02:01.452Z,100263.41
2022-07-27T01:06:05.393Z,100273.19
2022-07-27T01:10:09.135Z,100274.72
2022-07-27T01:14:17.126Z,100265.66
2022-07-27T01:18:35.007Z,100275.88
2022-07-27T01:22:37.496Z,100263.56
2022-07-27T01:26:39.500Z,100267.91
2022-07-27T01:30:41.883Z,100274.31
2022-07-27T01:34:44.005Z,100273.75
2022-07-27T01:38:47.101Z,100274.72
2022-07-27T01:42:49.236Z,100265.94
2022-07-27T01:46:51.532Z,100257.69
2022-07-27T01:50:55.279Z,100272.38
2022-07-27T01:54:57.547Z,100256.88
2022-07-27T01:59:00.297Z,100266.09
2022-07-27T02:03:05.059Z,100263.56
2022-07-27T02:07:07.107Z,100261.03
2022-07-27T02:11:28.206Z,100257.13
2022-07-27T02:15:43.058Z,100259.53
2022-07-27T02:19:46.830Z,100258.13
2022-07-27T02:23:48.902Z,100258.69
2022-07-27T02:27:51.073Z,100264.25
2022-07-27T02:31:53.068Z,100263.72
2022-07-27T02:35:55.424Z,100265.97
2022-07-27T02:39:57.455Z,100266.50
2022-07-27T02:43:59.776Z,100283.69
2022-07-27T02:48:02.307Z,100276.13
2022-07-27T02:52:06.153Z,100277.81
2022-07-27T02:56:08.468Z,100277.66
2022-07-27T03:00:14.344Z,100276.41
2022-07-27T03:04:16.708Z,100280.31
2022-07-27T03:08:18.948Z,100290.22
2022-07-27T03:12:21.083Z,100316.97
2022-07-27T03:16:23.411Z,100316.41
2022-07-27T03:20:25.651Z,100313.63
2022-07-27T03:24:28.073Z,100330.09
2022-07-27T03:28:30.194Z,100319.28
2022-07-27T03:32:32.699Z,100323.81
2022-07-27T03:36:34.764Z,100338.59
2022-07-27T03:40:37.567Z,100336.81
2022-07-27T03:44:39.595Z,100348.09
2022-07-27T03:48:41.803Z,100331.78
2022-07-27T03:52:45.599Z,100331.50
2022-07-27T03:56:48.176Z,100323.28
2022-07-27T04:00:51.198Z,100325.28
2022-07-27T04:04:53.523Z,100325.28
2022-07-27T04:08:59.713Z,100330.88
2022-07-27T04:13:12.911Z,100325.41
2022-07-27T04:17:54.463Z,100328.94
2022-07-27T04:21:38.935Z,100342.09
2022-07-27T04:25:41.408Z,100340.41
2022-07-27T04:29:43.741Z,100335.34
2022-07-27T04:33:46.143Z,100338.28
2022-07-27T04:37:59.052Z,100351.81
2022-07-27T04:42:02.267Z,100350.13
2022-07-27T04:46:05.318Z,100345.19
2022-07-27T04:50:07.992Z,100354.22
2022-07-27T04:54:11.501Z,100382.16
2022-07-27T04:58:15.171Z,100399.34
2022-07-27T05:02:17.513Z,100403.19
2022-07-27T05:06:19.898Z,100415.53
2022-07-27T05:10:22.345Z,100401.06
2022-07-27T05:14:24.616Z,100430.88
2022-07-27T05:18:27.039Z,100419.75
2022-07-27T05:22:29.359Z,100402.09
2022-07-27T05:26:31.648Z,100431.03
2022-07-27T05:30:34.048Z,100436.75
2022-07-27T05:34:36.394Z,100435.81
2022-07-27T05:38:39.807Z,100460.59
2022-07-27T05:42:44.050Z,100446.78
2022-07-27T05:46:46.153Z,100466.06
2022-07-27T05:50:48.377Z,100470.00
2022-07-27T05:54:50.551Z,100496.75
2022-07-27T05:58:53.094Z,100485.72
2022-07-27T06:02:55.297Z,100484.75
2022-07-27T06:07:16.073Z,100510.66
2022-07-27T06:11:18.307Z,100509.28
2022-07-27T06:15:20.956Z,100521.88
2022-07-27T06:19:23.274Z,100516.69
2022-07-27T06:23:26.026Z,100533.47
2022-07-27T06:27:29.721Z,100532.34
2022-07-27T06:31:35.643Z,100543.41
2022-07-27T06:35:39.027Z,100529.63
2022-07-27T06:39:41.366Z,100533.66
2022-07-27T06:43:43.445Z,100529.50
2022-07-27T06:47:49.863Z,100531.53
2022-07-27T06:51:53.300Z,100541.78
2022-07-27T06:55:55.819Z,100538.06
2022-07-27T06:59:57.852Z,100533.13
2022-07-27T07:04:00.896Z,100531.56
2022-07-27T07:08:03.319Z,100530.63
2022-07-27T07:12:06.147Z,100540.44
2022-07-27T07:16:08.545Z,100540.06
2022-07-27T07:20:11.427Z,100534.59
2022-07-27T07:24:14.011Z,100533.34
2022-07-27T07:28:16.436Z,100540.09
2022-07-27T07:32:22.811Z,100543.66
2022-07-27T07:36:25.222Z,100534.78
2022-07-27T07:40:44.574Z,100541.50
2022-07-27T07:44:47.373Z,100534.53
2022-07-27T07:48:49.837Z,100543.09
2022-07-27T07:52:53.931Z,100533.72
2022-07-27T07:56:55.959Z,100533.34
2022-07-27T08:00:58.166Z,100540.16
2022-07-27T08:05:00.216Z,100549.59
2022-07-27T08:09:02.490Z,100544.94
2022-07-27T08:13:05.287Z,100547.88
2022-07-27T08:17:07.692Z,100544.28
2022-07-27T08:21:09.680Z,100538.81
2022-07-27T08:25:12.327Z,100547.97
2022-07-27T08:29:14.845Z,100548.03
2022-07-27T08:33:18.256Z,100544.44
2022-07-27T08:37:20.316Z,100542.28
2022-07-27T08:41:25.593Z,100541.13
2022-07-27T08:45:28.356Z,100541.50
2022-07-27T08:49:42.381Z,100553.72
2022-07-27T08:53:53.363Z,100564.59
2022-07-27T08:58:02.245Z,100558.56
2022-07-27T09:02:09.308Z,100571.09
2022-07-27T09:06:11.711Z,100570.56
2022-07-27T09:10:30.414Z,100564.59
2022-07-27T09:14:35.189Z,100565.13
2022-07-27T09:18:38.959Z,100570.31
2022-07-27T09:22:51.280Z,100565.28
2022-07-27T09:27:02.775Z,100575.69
2022-07-27T09:31:13.323Z,100576.66
2022-07-27T09:35:17.461Z,100573.81
2022-07-27T09:39:21.842Z,100572.66
2022-07-27T09:47:48.668Z,100580.59
2022-07-27T09:52:06.104Z,100579.28
2022-07-27T09:56:11.634Z,100582.78
2022-07-27T10:00:14.305Z,100581.56
2022-07-27T10:04:17.860Z,100576.28
2022-07-27T10:08:20.520Z,100567.44
2022-07-27T10:12:23.428Z,100565.88
2022-07-27T10:16:29.222Z,100577.09
2022-07-27T10:20:33.456Z,100588.38
2022-07-27T10:24:37.276Z,100587.19
2022-07-27T10:28:49.985Z,100585.34
2022-07-27T10:32:52.186Z,100573.75
2022-07-27T10:36:54.473Z,100574.78
2022-07-27T10:41:22.856Z,100577.25
2022-07-27T10:45:50.321Z,100575.00
2022-07-27T10:50:16.446Z,100581.47
2022-07-27T10:54:29.413Z,100586.75
2022-07-27T10:58:32.119Z,100587.91
2022-07-27T11:02:43.476Z,100589.59
2022-07-27T11:07:22.677Z,100589.28
2022-07-27T11:11:10.630Z,100589.28
2022-07-27T11:15:12.791Z,100578.28
2022-07-27T11:19:17.974Z,100570.97
2022-07-27T11:27:51.469Z,100569.59
2022-07-27T11:31:58.463Z,100583.03
2022-07-27T11:36:05.145Z,100573.75
2022-07-27T11:40:37.468Z,100578.78
2022-07-27T11:44:30.564Z,100577.81
2022-07-27T11:48:49.923Z,100579.28
2022-07-27T11:53:01.857Z,100586.66
2022-07-27T11:57:15.832Z,100580.59
2022-07-27T12:01:27.987Z,100587.16
2022-07-27T12:05:30.103Z,100575.69
2022-07-27T12:09:38.128Z,100582.50
2022-07-27T12:13:40.990Z,100576.94
2022-07-27T12:17:44.705Z,100576.28
2022-07-27T12:21:55.349Z,100582.13
2022-07-27T12:25:57.740Z,100571.47
2022-07-27T12:30:13.833Z,100575.94
2022-07-27T12:34:16.186Z,100586.53
2022-07-27T12:38:18.361Z,100575.44
2022-07-27T12:42:20.612Z,100564.38
2022-07-27T12:46:22.788Z,100571.59
2022-07-27T12:50:28.935Z,100566.09
2022-07-27T12:54:30.967Z,100566.53
2022-07-27T12:58:33.471Z,100564.34
2022-07-27T13:02:35.506Z,100562.59
2022-07-27T13:06:37.779Z,100570.94
2022-07-27T13:10:40.143Z,100567.56
2022-07-27T13:14:43.409Z,100569.03
2022-07-27T13:18:45.932Z,100560.91
2022-07-27T13:22:48.741Z,100559.84
2022-07-27T13:26:50.807Z,100557.19
2022-07-27T13:30:53.145Z,100550.50
2022-07-27T13:34:55.211Z,100551.97
2022-07-27T13:38:57.606Z,100556.94
2022-07-27T13:42:59.710Z,100553.50
2022-07-27T13:47:02.583Z,100550.34
2022-07-27T13:51:04.512Z,100546.03
2022-07-27T13:55:08.164Z,100546.47
2022-07-27T13:59:11.931Z,100546.31
2022-07-27T14:03:14.344Z,100543.44
2022-07-27T14:07:16.795Z,100538.09
2022-07-27T14:11:18.970Z,100541.47
2022-07-27T14:15:21.079Z,100540.97
2022-07-27T14:19:23.249Z,100550.72
2022-07-27T14:23:26.659Z,100552.81
2022-07-27T14:27:36.243Z,100556.16
2022-07-27T14:31:39.805Z,100550.13
2022-07-27T14:35:42.605Z,100554.44
2022-07-27T14:39:44.652Z,100546.31
2022-07-27T14:43:47.219Z,100554.38
2022-07-27T14:47:49.688Z,100554.72
2022-07-27T14:51:51.946Z,100553.22
2022-07-27T14:55:54.286Z,100548.63
2022-07-27T14:59:56.734Z,100546.56
2022-07-27T15:03:58.993Z,100541.13
2022-07-27T15:08:01.404Z,100535.09
2022-07-27T15:12:04.099Z,100532.25
2022-07-27T15:16:07.395Z,100525.34
2022-07-27T15:20:10.851Z,100534.16
2022-07-27T15:24:13.814Z,100529.19
2022-07-27T15:28:15.953Z,100528.03
2022-07-27T15:32:18.190Z,100532.22
2022-07-27T15:36:32.310Z,100534.91
2022-07-27T15:40:37.188Z,100540.13
2022-07-27T15:44:41.423Z,100537.25
2022-07-27T15:48:43.800Z,100536.13
2022-07-27T15:52:46.572Z,100538.69
2022-07-27T15:56:48.964Z,100538.31
2022-07-27T16:00:56.008Z,100541.03
2022-07-27T16:04:59.924Z,100532.63
2022-07-27T16:09:02.383Z,100537.53
2022-07-27T16:13:05.759Z,100537.03
2022-07-27T16:17:07.882Z,100538.16
2022-07-27T16:21:10.126Z,100529.28
2022-07-27T16:25:12.168Z,100521.84
2022-07-27T16:29:16.148Z,100512.13
2022-07-27T16:33:19.038Z,100524.13
2022-07-27T16:37:21.306Z,100515.78
2022-07-27T16:41:23.694Z,100522.59
2022-07-27T16:45:26.075Z,100517.75
2022-07-27T16:49:33.557Z,100510.91
2022-07-27T16:53:41.493Z,100513.09
2022-07-27T16:57:43.584Z,100519.28
2022-07-27T17:01:46.509Z,100511.06
2022-07-27T17:05:48.911Z,100521.91
2022-07-27T17:09:51.338Z,100516.06
2022-07-27T17:13:59.331Z,100511.03
2022-07-27T17:18:02.497Z,100508.53
2022-07-27T17:22:04.655Z,100508.22
2022-07-27T17:26:08.994Z,100503.03
2022-07-27T17:30:12.534Z,100491.81
2022-07-27T17:34:14.734Z,100496.47
2022-07-27T17:38:16.799Z,100498.88
2022-07-27T17:42:19.123Z,100513.72
2022-07-27T17:46:23.348Z,100513.66
2022-07-27T17:50:26.517Z,100509.38
2022-07-27T17:54:28.623Z,100517.09
2022-07-27T17:58:30.987Z,100517.75
2022-07-27T18:02:32.983Z,100523.25
2022-07-27T18:06:35.720Z,100519.97
2022-07-27T18:10:38.774Z,100524.41
2022-07-27T18:15:01.279Z,100523.66
2022-07-27T18:19:03.610Z,100530.47
2022-07-27T18:23:06.769Z,100518.09
2022-07-27T18:27:09.343Z,100513.91
2022-07-27T18:31:15.209Z,100518.78
2022-07-27T18:35:17.818Z,100514.00
2022-07-27T18:39:20.025Z,100518.44
2022-07-27T18:43:22.072Z,100529.66
2022-07-27T18:47:24.365Z,100520.50
2022-07-27T18:51:26.573Z,100512.06
2022-07-27T18:55:28.909Z,100521.38
2022-07-27T18:59:31.072Z,100484.69
2022-07-27T19:03:33.649Z,100479.59
2022-07-27T19:07:36.405Z,100488.00
2022-07-27T19:11:41.804Z,100493.06
2022-07-27T19:15:44.990Z,100494.97
2022-07-27T19:19:47.632Z,100480.41
2022-07-27T19:23:49.892Z,100463.09
2022-07-27T19:27:52.186Z,100477.09
2022-07-27T19:31:54.260Z,100478.38
2022-07-27T19:35:58.123Z,100451.03
2022-07-27T19:40:20.224Z,100468.47
2022-07-27T19:44:24.146Z,100462.13
2022-07-27T19:48:28.020Z,100469.06
2022-07-27T19:52:30.349Z,100461.66
2022-07-27T19:56:37.108Z,100471.13
2022-07-27T20:00:39.939Z,100477.47
2022-07-27T20:04:42.141Z,100479.72
2022-07-27T20:08:44.466Z,100490.25
2022-07-27T20:12:46.600Z,100500.41
2022-07-27T20:16:48.878Z,100546.47
2022-07-27T20:20:51.085Z,100601.00
2022-07-27T20:24:53.351Z,100645.53
2022-07-27T20:28:57.620Z,100644.94
2022-07-27T20:32:59.811Z,100658.84
2022-07-27T20:37:01.780Z,100664.72
2022-07-27T20:41:04.207Z,100673.59
2022-07-27T20:45:07.820Z,100675.22
2022-07-27T20:49:10.282Z,100681.13
2022-07-27T20:53:12.527Z,100691.00
2022-07-27T20:57:14.741Z,100693.41
2022-07-27T21:01:16.875Z,100695.13
2022-07-27T21:05:19.821Z,100700.94
2022-07-27T21:09:22.029Z,100701.16
2022-07-27T21:13:24.586Z,100705.44
2022-07-27T21:17:26.725Z,100708.28
2022-07-27T21:21:29.049Z,100708.78
2022-07-27T21:25:31.133Z,100707.28
2022-07-27T21:29:33.748Z,100712.00
2022-07-27T21:33:39.616Z,100720.72
2022-07-27T21:37:43.966Z,100727.94
2022-07-27T21:41:46.446Z,100729.13
2022-07-27T21:45:49.822Z,100736.13
2022-07-27T21:49:52.438Z,100742.75
2022-07-27T21:53:54.773Z,100741.69
2022-07-27T21:57:56.808Z,100758.44
2022-07-27T22:02:00.986Z,100761.09
2022-07-27T22:06:04.149Z,100765.22
2022-07-27T22:10:06.948Z,100770.88
2022-07-27T22:14:09.130Z,100772.69
2022-07-27T22:18:11.513Z,100772.25
2022-07-27T22:22:13.787Z,100772.38
2022-07-27T22:26:16.189Z,100781.53
2022-07-27T22:30:18.319Z,100779.03
2022-07-27T22:34:20.562Z,100775.75
2022-07-27T22:38:22.614Z,100782.88
2022-07-27T22:42:24.893Z,100777.34
2022-07-27T22:46:30.088Z,100781.34
2022-07-27T22:50:32.469Z,100792.41
2022-07-27T22:54:36.724Z,100787.84
2022-07-27T22:58:38.945Z,100790.41
2022-07-27T23:02:40.949Z,100801.44
2022-07-27T23:06:43.218Z,100800.63
2022-07-27T23:10:48.336Z,100804.09
2022-07-27T23:14:50.530Z,100803.50
2022-07-27T23:18:52.467Z,100807.81
2022-07-27T23:22:55.330Z,100809.41
2022-07-27T23:26:57.614Z,100809.16
2022-07-27T23:30:59.973Z,100814.22
2022-07-27T23:35:02.191Z,100818.91
2022-07-27T23:39:04.420Z,100813.09
2022-07-27T23:43:06.505Z,100824.56
2022-07-27T23:47:09.023Z,100823.91
2022-07-27T23:51:19.985Z,100824.59
2022-07-27T23:55:22.318Z,100830.94
2022-07-27T23:59:24.346Z,100833.97
